Time;durP1;ratioP1;P1;durP2;ratioP2;P2;SDS_P1;SDS_P2;PMS_P1;PMS_P2;Temp;Humidity;BMP_temperature;BMP_pressure;BME280_temperature;BME280_humidity;BME280_pressure;Samples;Min_cycle;Max_cycle;Signal;HPM_P1;HPM_P2
2023/03/13 00:01:46;;;;;;;;;;;;;;;3.26;54.91;99776.47;5074040;28;19912;-67
2023/03/13 00:04:12;;;;;;;;;;;;;;;2.95;55.45;99766.28;5073883;28;19915;-68
2023/03/13 00:06:38;;;;;;;;;;;;;;;2.78;55.79;99778.44;5073909;28;19908;-67
2023/03/13 00:09:04;;;;;;;;;;;;;;;2.83;55.56;99774.00;5071018;28;19912;-67
2023/03/13 00:11:30;;;;;;;;;;;;;;;2.60;56.81;99779.81;5072568;28;19916;-67
2023/03/13 00:13:59;;;;;;;;;;;;;;;2.38;57.42;99780.06;5072566;28;20303;-67
2023/03/13 00:16:24;;;;;;;;;;;;;;;2.29;57.50;99776.97;5073695;28;19916;-66
2023/03/13 00:18:51;;;;;;;;;;;;;;;2.35;58.23;99783.34;5072400;28;20008;-67
2023/03/13 00:21:17;;;;;;;;;;;;;;;2.77;57.66;99775.94;5073668;28;19931;-67
2023/03/13 00:23:42;;;;;;;;;;;;;;;3.12;57.57;99782.56;5070583;28;19931;-67
2023/03/13 00:26:09;;;;;;;;;;;;;;;3.19;56.07;99785.91;5072240;28;19908;-67
2023/03/13 00:28:35;;;;;;;;;;;;;;;3.34;56.79;99790.59;5072303;28;19919;-67
2023/03/13 00:31:04;;;;;;;;;;;;;;;3.50;56.63;99788.63;5073412;28;19913;-67
2023/03/13 00:33:33;;;;;;;;;;;;;;;3.70;56.47;99791.63;5072045;28;19908;-67
2023/03/13 00:36:03;;;;;;;;;;;;;;;3.79;55.48;99785.22;5072024;28;19947;-67
2023/03/13 00:38:30;;;;;;;;;;;;;;;3.91;54.05;99784.06;5083503;28;19912;-66
2023/03/13 00:40:59;;;;;;;;;;;;;;;3.91;53.69;99784.06;5073303;28;19999;-67
2023/03/13 00:43:25;;;;;;;;;;;;;;;3.78;53.69;99789.09;5068474;28;19912;-68
2023/03/13 00:45:50;;;;;;;;;;;;;;;3.68;53.49;99783.59;5069581;28;20393;-66
2023/03/13 00:48:15;;;;;;;;;;;;;;;3.69;55.54;99782.47;5073006;28;19908;-67
2023/03/13 00:50:41;;;;;;;;;;;;;;;3.58;54.27;99778.06;5071692;28;19955;-67
2023/03/13 00:53:06;;;;;;;;;;;;;;;3.57;55.18;99780.03;5071725;28;19909;-67
2023/03/13 00:55:31;;;;;;;;;;;;;;;3.46;54.29;99778.41;5072812;28;19912;-67
2023/03/13 00:57:56;;;;;;;;;;;;;;;3.54;54.92;99780.56;5072874;28;19954;-67
2023/03/13 01:00:22;;;;;;;;;;;;;;;3.36;54.43;99773.69;5069507;28;19969;-67
2023/03/13 01:02:47;;;;;;;;;;;;;;;3.41;55.53;99782.00;5072853;28;19915;-67
2023/03/13 01:05:12;;;;;;;;;;;;;;;3.43;55.53;99777.00;5072628;28;19970;-68
2023/03/13 01:07:38;;;;;;;;;;;;;;;3.48;54.88;99777.00;5072679;28;19912;-67
2023/03/13 01:10:03;;;;;;;;;;;;;;;3.55;55.19;99778.66;5072530;28;19916;-67
2023/03/13 01:12:28;;;;;;;;;;;;;;;3.55;55.17;99773.13;5071357;28;19908;-68
2023/03/13 01:14:54;;;;;;;;;;;;;;;3.44;55.13;99778.66;5069933;28;20386;-67
2023/03/13 01:17:19;;;;;;;;;;;;;;;3.13;54.51;99783.41;5071635;28;19909;-67
2023/03/13 01:19:45;;;;;;;;;;;;;;;2.42;56.81;99783.91;5071162;28;19916;-67
2023/03/13 01:22:11;;;;;;;;;;;;;;;2.36;57.62;99785.84;5071046;28;19919;-67
2023/03/13 01:24:36;;;;;;;;;;;;;;;1.80;59.33;99783.72;5072308;28;19939;-66
2023/03/13 01:27:02;;;;;;;;;;;;;;;1.58;59.95;99795.72;5072356;28;19950;-66
2023/03/13 01:29:27;;;;;;;;;;;;;;;1.42;60.62;99786.53;5071036;28;19917;-67
2023/03/13 01:31:52;;;;;;;;;;;;;;;0.82;62.52;99781.97;5072343;28;20350;-66
2023/03/13 01:34:18;;;;;;;;;;;;;;;0.73;63.40;99789.06;5068973;28;20394;-66
2023/03/13 01:36:44;;;;;;;;;;;;;;;0.77;63.99;99794.88;5072326;28;20003;-66
2023/03/13 01:39:09;;;;;;;;;;;;;;;0.55;64.12;99791.09;5070839;28;19960;-66
2023/03/13 01:41:36;;;;;;;;;;;;;;;0.65;64.38;99790.38;5072145;28;19913;-66
2023/03/13 01:44:01;;;;;;;;;;;;;;;0.50;64.55;99793.78;5071978;28;19919;-66
2023/03/13 01:46:28;;;;;;;;;;;;;;;0.53;65.03;99789.69;5072152;28;19912;-67
2023/03/13 01:49:10;;;;;;;;;;;;;;;0.59;65.10;99796.09;5069509;28;19920;-67
2023/03/13 01:51:41;;;;;;;;;;;;;;;0.53;65.16;99790.50;5072347;28;19912;-66
2023/03/13 01:54:15;;;;;;;;;;;;;;;0.67;64.33;99796.44;5070561;28;20398;-67
2023/03/13 01:56:52;;;;;;;;;;;;;;;0.73;64.07;99799.25;5070517;28;20310;-66
2023/03/13 01:59:21;;;;;;;;;;;;;;;0.83;63.78;99802.91;5071507;28;19909;-67
2023/03/13 02:01:46;;;;;;;;;;;;;;;1.03;63.65;99814.38;5071841;28;20373;-67
2023/03/13 02:04:13;;;;;;;;;;;;;;;1.33;63.76;99823.97;5070152;28;19948;-67
2023/03/13 02:06:40;;;;;;;;;;;;;;;1.31;64.25;99820.63;5070474;28;20371;-66
2023/03/13 02:09:09;;;;;;;;;;;;;;;1.07;64.05;99826.53;5071723;28;19912;-66
2023/03/13 02:11:42;;;;;;;;;;;;;;;1.25;64.97;99836.31;5072487;28;20298;-66
2023/03/13 02:14:08;;;;;;;;;;;;;;;1.26;65.31;99846.22;5072111;28;19915;-66
2023/03/13 02:16:34;;;;;;;;;;;;;;;0.70;64.32;99853.72;5071681;28;20321;-66
2023/03/13 02:19:01;;;;;;;;;;;;;;;0.75;64.86;99852.13;5070344;28;19912;-66
2023/03/13 02:21:42;;;;;;;;;;;;;;;1.16;64.48;99855.25;5070385;28;19934;-68
2023/03/13 02:24:22;;;;;;;;;;;;;;;1.56;63.69;99855.84;5071711;28;20406;-66
2023/03/13 02:26:47;;;;;;;;;;;;;;;1.67;62.94;99860.31;5071614;28;19939;-66
2023/03/13 02:29:17;;;;;;;;;;;;;;;1.91;62.18;99867.34;5071584;28;19908;-66
2023/03/13 02:31:43;;;;;;;;;;;;;;;1.95;61.88;99860.22;5071673;28;19909;-66
2023/03/13 02:34:09;;;;;;;;;;;;;;;2.03;62.26;99872.66;5069850;28;19912;-66
2023/03/13 02:36:35;;;;;;;;;;;;;;;2.22;61.37;99873.03;5071430;28;19965;-67
2023/03/13 02:39:03;;;;;;;;;;;;;;;2.24;60.60;99874.44;5070851;28;20010;-67
2023/03/13 02:41:28;;;;;;;;;;;;;;;2.28;61.36;99887.69;5071378;28;19909;-67
2023/03/13 02:43:54;;;;;;;;;;;;;;;2.26;60.95;99893.47;5070167;28;20401;-66
2023/03/13 02:46:20;;;;;;;;;;;;;;;2.43;59.81;99887.75;5071338;28;19978;-67
2023/03/13 02:48:55;;;;;;;;;;;;;;;2.49;59.70;99891.34;5069446;28;19951;-66
2023/03/13 02:51:20;;;;;;;;;;;;;;;2.49;59.65;99889.44;5071199;28;20311;-67
2023/03/13 02:53:48;;;;;;;;;;;;;;;2.49;59.45;99883.91;5071598;28;19915;-66
2023/03/13 02:56:14;;;;;;;;;;;;;;;2.14;59.38;99879.91;5055885;28;19967;-67
2023/03/13 02:58:40;;;;;;;;;;;;;;;1.94;59.99;99891.66;5057412;28;19919;-67
2023/03/13 03:01:06;;;;;;;;;;;;;;;1.34;62.32;99894.56;5070062;28;19908;-66
2023/03/13 03:03:33;;;;;;;;;;;;;;;1.34;62.10;99897.31;5069001;28;19959;-66
2023/03/13 03:05:58;;;;;;;;;;;;;;;1.70;62.42;99907.78;5070028;28;19919;-67
2023/03/13 03:08:24;;;;;;;;;;;;;;;1.82;61.54;99906.50;5070269;28;20007;-67
2023/03/13 03:10:49;;;;;;;;;;;;;;;1.92;61.05;99910.38;5056802;28;20383;-67
2023/03/13 03:13:14;;;;;;;;;;;;;;;1.93;61.44;99914.81;5054864;28;19916;-67
2023/03/13 03:15:40;;;;;;;;;;;;;;;2.04;60.33;99919.28;5054615;28;19916;-67
2023/03/13 03:18:05;;;;;;;;;;;;;;;2.10;60.66;99921.00;5053607;28;19909;-67
2023/03/13 03:20:30;;;;;;;;;;;;;;;1.99;61.38;99922.03;5070393;28;20300;-67
2023/03/13 03:22:55;;;;;;;;;;;;;;;1.81;61.93;99926.06;5074778;28;19934;-67
2023/03/13 03:25:21;;;;;;;;;;;;;;;1.68;62.38;99924.56;5073543;28;20044;-67
2023/03/13 03:27:46;;;;;;;;;;;;;;;1.84;62.37;99930.22;5074444;28;19915;-67
2023/03/13 03:30:11;;;;;;;;;;;;;;;1.65;62.45;99944.41;5074124;28;19970;-67
2023/03/13 03:32:37;;;;;;;;;;;;;;;1.66;62.37;99938.66;5072797;28;19913;-67
2023/03/13 03:35:02;;;;;;;;;;;;;;;1.61;64.14;99951.56;5074603;28;19931;-67
2023/03/13 03:37:28;;;;;;;;;;;;;;;1.78;63.29;99956.94;5074452;28;19915;-66
2023/03/13 03:39:53;;;;;;;;;;;;;;;1.59;62.59;99957.31;5074524;28;20397;-67
2023/03/13 03:42:18;;;;;;;;;;;;;;;1.30;63.30;99954.03;5074340;28;20371;-67
2023/03/13 03:44:44;;;;;;;;;;;;;;;1.14;63.91;99959.41;5072288;28;19916;-67
2023/03/13 03:47:09;;;;;;;;;;;;;;;0.75;64.59;99971.38;5069569;28;19912;-67
2023/03/13 03:49:34;;;;;;;;;;;;;;;0.58;64.51;99965.94;5054603;28;20054;-67
2023/03/13 03:51:59;;;;;;;;;;;;;;;0.34;65.37;99966.19;5054211;28;19975;-67
2023/03/13 03:54:25;;;;;;;;;;;;;;;0.40;65.18;99965.19;5054189;28;20058;-67
2023/03/13 03:56:50;;;;;;;;;;;;;;;0.23;65.15;99978.97;5054105;28;19909;-67
2023/03/13 03:59:15;;;;;;;;;;;;;;;0.49;64.96;99982.06;5055542;28;19919;-67
2023/03/13 04:01:41;;;;;;;;;;;;;;;0.77;64.55;99985.72;5071745;28;20406;-67
2023/03/13 04:04:07;;;;;;;;;;;;;;;0.92;63.87;99990.56;5074859;28;19916;-67
2023/03/13 04:06:32;;;;;;;;;;;;;;;0.49;63.89;99992.28;5092773;28;19908;-67
2023/03/13 04:08:57;;;;;;;;;;;;;;;0.33;64.75;100002.22;5093842;28;19988;-67
2023/03/13 04:11:23;;;;;;;;;;;;;;;0.16;65.89;99991.25;5091674;28;19974;-67
2023/03/13 04:13:48;;;;;;;;;;;;;;;0.20;65.43;99995.16;5093987;28;19908;-67
2023/03/13 04:16:13;;;;;;;;;;;;;;;0.31;65.01;99994.22;5083467;28;19916;-67
2023/03/13 04:18:38;;;;;;;;;;;;;;;0.62;65.28;100000.16;5073810;28;19912;-67
2023/03/13 04:21:04;;;;;;;;;;;;;;;0.86;64.68;99996.28;5073651;28;19965;-67
2023/03/13 04:23:30;;;;;;;;;;;;;;;1.04;63.88;99992.34;5067810;28;19938;-67
2023/03/13 04:25:55;;;;;;;;;;;;;;;0.82;64.25;99998.72;5054271;28;20641;-67
2023/03/13 04:28:20;;;;;;;;;;;;;;;0.92;63.86;100007.09;5072242;28;19916;-67
2023/03/13 04:30:46;;;;;;;;;;;;;;;1.02;63.54;100011.91;5072448;28;19937;-67
2023/03/13 04:33:11;;;;;;;;;;;;;;;1.17;62.84;100016.75;5067525;28;19951;-67
2023/03/13 04:35:36;;;;;;;;;;;;;;;1.30;62.60;100020.19;5070734;28;19909;-67
2023/03/13 04:38:01;;;;;;;;;;;;;;;1.03;62.96;100027.38;5072093;28;19912;-67
2023/03/13 04:40:27;;;;;;;;;;;;;;;0.46;64.19;100028.53;5073431;28;19995;-67
2023/03/13 04:42:53;;;;;;;;;;;;;;;-0.08;66.10;100029.97;5073369;28;19908;-68
2023/03/13 04:45:18;;;;;;;;;;;;;;;-0.01;66.53;100027.84;5071957;28;19915;-68
2023/03/13 04:47:44;;;;;;;;;;;;;;;0.07;66.58;100032.13;5072005;28;19930;-67
2023/03/13 04:50:10;;;;;;;;;;;;;;;-0.13;67.15;100035.34;5072277;28;19916;-67
2023/03/13 04:52:35;;;;;;;;;;;;;;;0.19;66.70;100034.78;5071757;28;19915;-67
2023/03/13 04:55:00;;;;;;;;;;;;;;;0.25;66.21;100039.28;5071795;28;19938;-67
2023/03/13 04:57:26;;;;;;;;;;;;;;;0.43;66.57;100046.41;5072879;28;19908;-67
2023/03/13 04:59:51;;;;;;;;;;;;;;;0.63;65.35;100050.53;5072855;28;20002;-67
2023/03/13 05:02:16;;;;;;;;;;;;;;;0.69;65.07;100055.03;5060645;28;20014;-67
2023/03/13 05:04:42;;;;;;;;;;;;;;;0.73;64.59;100066.38;5070546;28;20379;-67
2023/03/13 05:07:07;;;;;;;;;;;;;;;0.23;66.35;100074.44;5071479;28;19908;-67
2023/03/13 05:09:32;;;;;;;;;;;;;;;0.29;66.23;100076.19;5072678;28;19908;-67
2023/03/13 05:11:57;;;;;;;;;;;;;;;-0.11;66.88;100068.97;5073972;28;20295;-67
2023/03/13 05:14:23;;;;;;;;;;;;;;;0.22;66.41;100070.03;5054609;28;19971;-67
2023/03/13 05:16:48;;;;;;;;;;;;;;;0.15;67.11;100075.69;5051564;28;19967;-68
2023/03/13 05:19:13;;;;;;;;;;;;;;;0.49;66.14;100075.66;5069483;28;20053;-67
2023/03/13 05:21:39;;;;;;;;;;;;;;;0.67;65.11;100079.25;5072478;28;19927;-67
2023/03/13 05:24:04;;;;;;;;;;;;;;;1.05;64.76;100084.94;5069894;28;19920;-67
2023/03/13 05:26:29;;;;;;;;;;;;;;;0.81;64.29;100086.03;5071983;28;20428;-67
2023/03/13 05:28:55;;;;;;;;;;;;;;;0.97;64.52;100087.09;5070976;28;20094;-67
2023/03/13 05:31:20;;;;;;;;;;;;;;;1.31;63.63;100093.53;5070993;28;19916;-67
2023/03/13 05:33:45;;;;;;;;;;;;;;;1.17;63.70;100099.44;5056204;28;19912;-67
2023/03/13 05:36:10;;;;;;;;;;;;;;;0.36;65.68;100096.16;5065757;28;19922;-67
2023/03/13 05:38:36;;;;;;;;;;;;;;;0.86;64.91;100104.56;5067876;28;20288;-67
2023/03/13 05:41:01;;;;;;;;;;;;;;;0.64;65.16;100102.59;5084646;28;20417;-69
2023/03/13 05:43:26;;;;;;;;;;;;;;;0.43;66.54;100108.88;5088645;28;20007;-67
2023/03/13 05:45:52;;;;;;;;;;;;;;;0.55;67.09;100106.88;5085537;28;20039;-68
2023/03/13 05:48:17;;;;;;;;;;;;;;;1.12;65.56;100110.41;5067622;28;19916;-67
2023/03/13 05:50:42;;;;;;;;;;;;;;;1.14;65.47;100115.63;5069433;28;19920;-68
2023/03/13 05:53:08;;;;;;;;;;;;;;;1.62;64.38;100122.25;5068522;28;19912;-67
2023/03/13 05:55:33;;;;;;;;;;;;;;;1.55;64.43;100121.66;5069711;28;19917;-67
2023/03/13 05:57:58;;;;;;;;;;;;;;;1.66;64.40;100123.44;5069738;28;19908;-68
2023/03/13 06:00:23;;;;;;;;;;;;;;;1.60;64.45;100131.91;5069106;28;19916;-68
2023/03/13 06:02:49;;;;;;;;;;;;;;;1.42;64.54;100133.09;5068295;28;19919;-68
2023/03/13 06:05:14;;;;;;;;;;;;;;;0.97;66.60;100135.81;5067733;28;19938;-68
2023/03/13 06:07:39;;;;;;;;;;;;;;;0.98;66.80;100130.06;5070788;28;19912;-68
2023/03/13 06:10:05;;;;;;;;;;;;;;;1.42;66.17;100136.66;5062399;28;20300;-68
2023/03/13 06:12:30;;;;;;;;;;;;;;;1.81;64.56;100142.06;5059592;28;19913;-67
2023/03/13 06:14:55;;;;;;;;;;;;;;;1.91;65.06;100143.25;5061738;28;20091;-67
2023/03/13 06:17:21;;;;;;;;;;;;;;;1.99;64.56;100139.19;5075454;28;19920;-67
2023/03/13 06:19:46;;;;;;;;;;;;;;;2.16;64.57;100155.63;5064836;28;20365;-68
2023/03/13 06:22:12;;;;;;;;;;;;;;;1.90;65.08;100145.19;5049091;28;19916;-67
2023/03/13 06:24:37;;;;;;;;;;;;;;;1.94;65.73;100148.28;5061487;28;20371;-67
2023/03/13 06:27:02;;;;;;;;;;;;;;;1.88;66.07;100150.13;5056329;28;19916;-69
2023/03/13 06:29:27;;;;;;;;;;;;;;;2.15;65.01;100148.44;5074994;28;19999;-67
2023/03/13 06:31:53;;;;;;;;;;;;;;;2.31;63.64;100153.03;5066026;28;20291;-71
2023/03/13 06:34:18;;;;;;;;;;;;;;;2.26;64.45;100141.91;5069329;28;20267;-69
2023/03/13 06:36:43;;;;;;;;;;;;;;;2.73;62.59;100151.41;5059633;28;19966;-69
2023/03/13 06:39:10;;;;;;;;;;;;;;;2.57;62.17;100149.63;5065518;28;20425;-69
2023/03/13 06:41:35;;;;;;;;;;;;;;;2.59;62.21;100148.25;5060852;28;20461;-68
2023/03/13 06:44:00;;;;;;;;;;;;;;;2.90;61.15;100151.25;5065486;28;19950;-69
2023/03/13 06:46:26;;;;;;;;;;;;;;;3.27;60.92;100148.66;5066103;28;20001;-69
2023/03/13 06:48:51;;;;;;;;;;;;;;;3.24;60.48;100150.03;5072298;28;19922;-68
2023/03/13 06:51:18;;;;;;;;;;;;;;;3.40;59.95;100153.69;5060871;28;19916;-70
2023/03/13 06:53:44;;;;;;;;;;;;;;;3.56;59.07;100142.69;5061064;28;20419;-67
2023/03/13 06:56:09;;;;;;;;;;;;;;;3.63;58.04;100146.03;5061818;28;20054;-68
2023/03/13 06:58:35;;;;;;;;;;;;;;;3.46;57.39;100147.06;5052730;28;19916;-67
2023/03/13 07:01:11;;;;;;;;;;;;;;;3.51;57.67;100143.50;5067930;28;19919;-67
2023/03/13 07:03:37;;;;;;;;;;;;;;;3.83;58.48;100142.50;5063833;28;19974;-68
2023/03/13 07:06:02;;;;;;;;;;;;;;;4.02;57.72;100148.34;5063592;28;19913;-66
2023/03/13 07:08:28;;;;;;;;;;;;;;;4.08;58.10;100147.22;5069931;28;19912;-65
2023/03/13 07:10:57;;;;;;;;;;;;;;;4.44;57.42;100140.03;5070009;28;19923;-65
2023/03/13 07:13:22;;;;;;;;;;;;;;;4.53;57.40;100143.09;5070609;28;19908;-67
2023/03/13 07:15:48;;;;;;;;;;;;;;;5.16;55.65;100141.88;5069839;28;19927;-68
2023/03/13 07:18:13;;;;;;;;;;;;;;;5.56;54.87;100140.03;5068286;28;20004;-68
2023/03/13 07:20:39;;;;;;;;;;;;;;;5.03;54.04;100146.06;5072178;28;20306;-69
2023/03/13 07:23:04;;;;;;;;;;;;;;;4.95;54.42;100138.31;5071840;28;19912;-70
2023/03/13 07:25:29;;;;;;;;;;;;;;;4.58;55.13;100155.00;5060903;28;19966;-69
2023/03/13 07:27:55;;;;;;;;;;;;;;;4.66;56.08;100144.47;5071764;28;19974;-70
2023/03/13 07:30:20;;;;;;;;;;;;;;;4.99;55.85;100150.50;5072423;28;19970;-69
2023/03/13 07:32:46;;;;;;;;;;;;;;;5.12;54.45;100144.38;5070408;28;19916;-69
2023/03/13 07:35:11;;;;;;;;;;;;;;;4.77;53.79;100141.41;5078250;28;20405;-69
2023/03/13 07:37:37;;;;;;;;;;;;;;;5.08;53.60;100145.22;5085099;28;19912;-69
2023/03/13 07:40:03;;;;;;;;;;;;;;;5.50;53.90;100143.97;5069418;28;19951;-69
2023/03/13 07:42:29;;;;;;;;;;;;;;;5.60;53.33;100152.22;5070889;28;20402;-68
2023/03/13 07:44:54;;;;;;;;;;;;;;;5.57;53.14;100151.97;5079386;28;20030;-69
2023/03/13 07:47:19;;;;;;;;;;;;;;;5.75;53.11;100148.53;5092367;28;19912;-69
2023/03/13 07:49:45;;;;;;;;;;;;;;;5.44;52.22;100148.72;5084132;28;19959;-72
2023/03/13 07:52:11;;;;;;;;;;;;;;;5.51;52.35;100147.56;5072395;28;19935;-73
2023/03/13 07:54:36;;;;;;;;;;;;;;;5.70;51.80;100145.81;5071789;28;20431;-69
2023/03/13 07:57:02;;;;;;;;;;;;;;;6.04;51.43;100147.88;5068200;28;19962;-68
2023/03/13 07:59:27;;;;;;;;;;;;;;;6.40;50.95;100137.59;5071489;28;19918;-68
2023/03/13 08:01:52;;;;;;;;;;;;;;;7.05;48.53;100128.06;5067812;28;19908;-68
2023/03/13 08:04:18;;;;;;;;;;;;;;;6.80;47.52;100127.22;5071733;28;19913;-68
2023/03/13 08:06:43;;;;;;;;;;;;;;;7.20;47.93;100115.09;5072288;28;20224;-69
2023/03/13 08:09:09;;;;;;;;;;;;;;;7.71;47.13;100117.22;5069348;28;20007;-67
2023/03/13 08:11:34;;;;;;;;;;;;;;;7.86;45.92;100109.78;5071339;28;20276;-70
2023/03/13 08:13:59;;;;;;;;;;;;;;;8.25;44.53;100107.78;5074004;28;19908;-68
2023/03/13 08:16:29;;;;;;;;;;;;;;;8.37;44.02;100099.78;5072094;28;19923;-68
2023/03/13 08:18:55;;;;;;;;;;;;;;;8.18;44.12;100101.78;5067757;28;19993;-67
2023/03/13 08:21:22;;;;;;;;;;;;;;;8.24;43.55;100092.19;5081548;28;19913;-68
2023/03/13 08:23:51;;;;;;;;;;;;;;;7.83;44.28;100094.50;5071027;28;19912;-68
2023/03/13 08:26:18;;;;;;;;;;;;;;;8.17;43.66;100094.56;5072587;28;19919;-67
2023/03/13 08:28:44;;;;;;;;;;;;;;;8.69;42.65;100091.75;5073023;28;20069;-67
2023/03/13 08:31:35;;;;;;;;;;;;;;;9.06;42.09;100086.28;5071794;28;19923;-67
2023/03/13 08:34:01;;;;;;;;;;;;;;;8.93;42.74;100083.19;5068984;28;19909;-67
2023/03/13 08:36:28;;;;;;;;;;;;;;;8.70;42.51;100090.63;5073425;28;19999;-67
2023/03/13 08:38:54;;;;;;;;;;;;;;;8.80;42.64;100095.97;5072382;28;19908;-67
2023/03/13 08:41:21;;;;;;;;;;;;;;;9.19;41.53;100099.41;5072950;28;19915;-69
2023/03/13 08:43:46;;;;;;;;;;;;;;;9.04;42.20;100094.97;5073140;28;19909;-67
2023/03/13 08:46:12;;;;;;;;;;;;;;;8.75;42.15;100098.88;5072839;28;20394;-68
2023/03/13 08:48:37;;;;;;;;;;;;;;;9.44;41.45;100104.78;5071538;28;20383;-68
2023/03/13 08:51:04;;;;;;;;;;;;;;;9.46;43.23;100094.94;5071379;28;20395;-68
2023/03/13 08:53:30;;;;;;;;;;;;;;;8.89;42.11;100098.06;5072935;28;19947;-68
2023/03/13 08:55:55;;;;;;;;;;;;;;;8.71;41.49;100097.84;5071492;28;19908;-68
2023/03/13 08:58:20;;;;;;;;;;;;;;;9.28;42.09;100099.50;5072863;28;20383;-68
2023/03/13 09:00:46;;;;;;;;;;;;;;;9.75;40.88;100092.94;5070920;28;19909;-69
2023/03/13 09:03:11;;;;;;;;;;;;;;;9.85;40.59;100098.28;5070811;28;20016;-70
2023/03/13 09:05:39;;;;;;;;;;;;;;;10.18;40.32;100086.06;5070952;28;19970;-68
2023/03/13 09:08:05;;;;;;;;;;;;;;;10.29;38.49;100086.66;5071077;28;19915;-69
2023/03/13 09:10:34;;;;;;;;;;;;;;;10.81;38.98;100081.38;5072000;28;19920;-69
2023/03/13 09:12:59;;;;;;;;;;;;;;;10.60;38.10;100088.66;5053690;28;19912;-69
2023/03/13 09:15:25;;;;;;;;;;;;;;;10.11;37.85;100084.53;5072103;28;19916;-69
2023/03/13 09:17:50;;;;;;;;;;;;;;;10.63;37.75;100086.06;5071527;28;19920;-70
2023/03/13 09:20:17;;;;;;;;;;;;;;;10.75;37.80;100079.88;5070895;28;19908;-70
2023/03/13 09:22:43;;;;;;;;;;;;;;;10.93;37.19;100063.16;5072002;28;19912;-69
2023/03/13 09:25:09;;;;;;;;;;;;;;;11.19;36.45;100068.03;5072527;28;20303;-69
2023/03/13 09:27:35;;;;;;;;;;;;;;;10.98;36.92;100057.44;5070871;28;19915;-70
2023/03/13 09:30:00;;;;;;;;;;;;;;;11.48;38.69;100063.84;5071894;28;20302;-70
2023/03/13 09:32:25;;;;;;;;;;;;;;;11.73;38.99;100059.41;5072071;28;20003;-70
2023/03/13 09:34:50;;;;;;;;;;;;;;;11.70;37.69;100068.47;5070797;28;19926;-70
2023/03/13 09:37:16;;;;;;;;;;;;;;;11.90;36.07;100061.38;5070301;28;20359;-67
2023/03/13 09:39:41;;;;;;;;;;;;;;;12.12;35.57;100053.16;5071833;28;19912;-70
2023/03/13 09:42:14;;;;;;;;;;;;;;;12.26;34.84;100053.81;5070660;28;19915;-70
2023/03/13 09:44:43;;;;;;;;;;;;;;;12.31;36.10;100044.41;5065716;28;19919;-68
2023/03/13 09:47:20;;;;;;;;;;;;;;;12.51;37.18;100045.69;5072479;28;19908;-66
2023/03/13 09:49:50;;;;;;;;;;;;;;;12.85;35.21;100043.09;5066996;28;20402;-69
2023/03/13 09:52:16;;;;;;;;;;;;;;;13.05;35.14;100042.34;5065206;28;19912;-70
2023/03/13 09:54:45;;;;;;;;;;;;;;;12.81;34.32;100039.31;5063919;28;19923;-72
2023/03/13 09:57:30;;;;;;;;;;;;;;;12.91;35.42;100036.09;5057091;28;19971;-75
2023/03/13 10:00:12;;;;;;;;;;;;;;;12.96;33.25;100035.94;5058457;28;19994;-78
2023/03/13 10:02:38;;;;;;;;;;;;;;;13.00;32.64;100036.09;5050612;28;20894;-72
2023/03/13 10:05:03;;;;;;;;;;;;;;;12.43;31.78;100033.31;5062141;28;20003;-71
2023/03/13 10:07:29;;;;;;;;;;;;;;;12.21;32.42;100025.94;5068122;28;20003;-70
2023/03/13 10:09:54;;;;;;;;;;;;;;;12.24;31.76;100028.06;5069228;28;19917;-72
2023/03/13 10:12:22;;;;;;;;;;;;;;;12.67;32.35;100029.13;5070524;28;20340;-69
2023/03/13 10:14:53;;;;;;;;;;;;;;;12.80;31.92;100029.25;5065205;28;19916;-71
2023/03/13 10:17:35;;;;;;;;;;;;;;;12.88;32.00;100029.19;5060965;28;19932;-71
2023/03/13 10:20:15;;;;;;;;;;;;;;;12.70;31.75;100027.63;5061544;28;20299;-71
2023/03/13 10:22:43;;;;;;;;;;;;;;;12.75;31.18;100019.03;5056529;28;19920;-68
2023/03/13 10:25:18;;;;;;;;;;;;;;;12.91;32.04;100019.25;5060735;28;19916;-73
2023/03/13 10:27:47;;;;;;;;;;;;;;;12.75;32.17;100014.22;5064098;28;20477;-73
2023/03/13 10:30:21;;;;;;;;;;;;;;;12.78;31.45;100005.13;5060936;28;19930;-72
2023/03/13 10:32:47;;;;;;;;;;;;;;;12.68;30.89;100008.31;5073020;28;20414;-72
2023/03/13 10:35:19;;;;;;;;;;;;;;;12.55;31.83;100006.53;5057995;28;19970;-72
2023/03/13 10:37:44;;;;;;;;;;;;;;;12.76;29.79;100004.63;5052235;28;19916;-71
2023/03/13 10:40:13;;;;;;;;;;;;;;;13.04;29.75;100006.16;5055247;28;19916;-71
2023/03/13 10:42:43;;;;;;;;;;;;;;;13.58;31.17;100011.13;5059796;28;19919;-74
2023/03/13 10:45:13;;;;;;;;;;;;;;;12.83;31.96;100009.72;5069932;28;19920;-71
2023/03/13 10:47:38;;;;;;;;;;;;;;;12.92;31.07;100001.28;5061038;28;19912;-71
2023/03/13 10:50:03;;;;;;;;;;;;;;;12.70;30.66;100002.34;5058622;28;20031;-71
2023/03/13 10:52:49;;;;;;;;;;;;;;;12.72;30.99;99992.44;5057903;28;20432;-71
2023/03/13 10:55:19;;;;;;;;;;;;;;;13.00;31.10;99986.34;5065152;28;20733;-72
2023/03/13 10:57:58;;;;;;;;;;;;;;;13.17;30.00;99979.81;5052652;28;19908;-72
2023/03/13 11:00:26;;;;;;;;;;;;;;;13.31;30.12;99979.56;5057132;28;19916;-71
2023/03/13 11:02:53;;;;;;;;;;;;;;;13.81;27.67;99984.66;5053669;28;20084;-71
2023/03/13 11:05:24;;;;;;;;;;;;;;;13.95;26.08;99973.94;5081176;28;20426;-70
2023/03/13 11:07:50;;;;;;;;;;;;;;;13.97;26.43;99973.59;5050902;28;20288;-72
2023/03/13 11:10:16;;;;;;;;;;;;;;;14.10;28.62;99966.84;5054783;28;19927;-74
2023/03/13 11:12:45;;;;;;;;;;;;;;;14.21;27.63;99974.84;5059338;28;20517;-76
2023/03/13 11:15:19;;;;;;;;;;;;;;;13.98;27.71;99966.78;5052405;28;19975;-73
2023/03/13 11:17:49;;;;;;;;;;;;;;;13.31;29.46;99961.88;5062572;28;19939;-75
2023/03/13 11:20:24;;;;;;;;;;;;;;;13.68;30.09;99959.28;5061450;28;19931;-75
2023/03/13 11:22:49;;;;;;;;;;;;;;;13.51;29.15;99954.63;5081848;28;19912;-75
2023/03/13 11:25:18;;;;;;;;;;;;;;;13.43;27.98;99950.72;5062816;28;20299;-75
2023/03/13 11:27:47;;;;;;;;;;;;;;;13.70;27.94;99945.75;5050208;28;19912;-74
2023/03/13 11:30:31;;;;;;;;;;;;;;;13.80;26.66;99941.66;5054373;28;19916;-74
2023/03/13 11:33:03;;;;;;;;;;;;;;;13.90;27.36;99937.59;5058857;28;20413;-73
2023/03/13 11:35:31;;;;;;;;;;;;;;;13.58;27.06;99938.06;5070295;28;19939;-72
2023/03/13 11:37:57;;;;;;;;;;;;;;;13.87;26.16;99935.47;5067715;28;19924;-73
2023/03/13 11:40:28;;;;;;;;;;;;;;;13.68;27.43;99930.38;5057641;28;19916;-74
2023/03/13 11:43:01;;;;;;;;;;;;;;;14.10;26.52;99921.03;5061552;28;20402;-73
2023/03/13 11:45:32;;;;;;;;;;;;;;;14.55;26.96;99908.91;5070531;28;19912;-75
2023/03/13 11:48:00;;;;;;;;;;;;;;;14.58;27.32;99891.28;5058212;28;19994;-74
2023/03/13 11:50:32;;;;;;;;;;;;;;;14.50;27.28;99897.84;5064957;28;20432;-74
2023/03/13 11:53:08;;;;;;;;;;;;;;;14.50;27.38;99897.03;5067421;28;19916;-73
2023/03/13 11:55:43;;;;;;;;;;;;;;;13.90;27.46;99899.06;5069480;28;19913;-73
2023/03/13 11:58:23;;;;;;;;;;;;;;;13.99;27.05;99887.72;5058914;28;20393;-74
2023/03/13 12:01:04;;;;;;;;;;;;;;;14.26;26.58;99882.59;5060362;28;19923;-74
2023/03/13 12:03:32;;;;;;;;;;;;;;;14.16;27.37;99883.88;5059717;28;19938;-74
2023/03/13 12:05:59;;;;;;;;;;;;;;;13.97;28.22;99881.63;5070398;28;19944;-74
2023/03/13 12:08:27;;;;;;;;;;;;;;;14.22;26.93;99875.19;5071804;28;19909;-74
2023/03/13 12:11:04;;;;;;;;;;;;;;;14.46;27.92;99868.78;5058053;28;20307;-76
2023/03/13 12:13:51;;;;;;;;;;;;;;;14.33;26.97;99870.75;5065021;28;19961;-76
2023/03/13 12:16:22;;;;;;;;;;;;;;;14.66;26.86;99864.19;5056718;28;19950;-76
2023/03/13 12:18:48;;;;;;;;;;;;;;;14.27;27.76;99855.28;5066008;28;19916;-76
2023/03/13 12:21:22;;;;;;;;;;;;;;;14.52;26.81;99856.09;5069147;28;20402;-76
2023/03/13 12:23:51;;;;;;;;;;;;;;;14.74;27.90;99859.63;5057103;28;20311;-76
2023/03/13 12:26:20;;;;;;;;;;;;;;;14.76;26.40;99865.72;5061023;28;20392;-75
2023/03/13 12:28:51;;;;;;;;;;;;;;;14.58;25.60;99865.97;5065389;28;19920;-76
2023/03/13 12:31:39;;;;;;;;;;;;;;;14.78;25.73;99863.41;5062745;28;19962;-76
2023/03/13 12:39:52;;;;;;;;;;;;;;;14.01;26.94;99867.69;2020482;23;19928;-75
2023/03/13 12:42:39;;;;;;;;;;;;;;;14.33;26.30;99856.69;5061778;28;19982;-76
2023/03/13 12:45:07;;;;;;;;;;;;;;;14.70;25.58;99845.41;5068265;28;21312;-79
2023/03/13 12:47:33;;;;;;;;;;;;;;;14.66;26.57;99847.31;5049879;28;20365;-79
2023/03/13 12:50:04;;;;;;;;;;;;;;;14.70;27.44;99856.66;5049758;28;19999;-79
2023/03/13 12:52:35;;;;;;;;;;;;;;;14.43;25.29;99852.59;5063381;28;19959;-77
2023/03/13 12:55:07;;;;;;;;;;;;;;;14.59;25.65;99844.25;5077595;28;19916;-78